createdAt,value
2022-11-03T00:00:59.012Z,98869.25
2022-11-03T00:02:00.428Z,98875.06
2022-11-03T00:03:01.928Z,98874.56
2022-11-03T00:04:07.275Z,98875.13
2022-11-03T00:05:08.692Z,98871.19
2022-11-03T00:06:10.026Z,98870.13
2022-11-03T00:07:11.360Z,98872.28
2022-11-03T00:09:20.044Z,98867.53
2022-11-03T00:10:21.374Z,98867.00
2022-11-03T00:11:22.701Z,98868.06
2022-11-03T00:12:24.003Z,98858.81
2022-11-03T00:13:25.453Z,98858.28
2022-11-03T00:14:27.130Z,98860.44
2022-11-03T00:15:28.460Z,98862.06
2022-11-03T00:16:29.786Z,98854.13
2022-11-03T00:17:31.071Z,98856.53
2022-11-03T00:18:32.746Z,98856.81
2022-11-03T00:19:34.079Z,98853.16
2022-11-03T00:20:35.399Z,98861.88
2022-11-03T00:21:37.118Z,98854.22
2022-11-03T00:22:38.447Z,98858.72
2022-11-03T00:23:41.273Z,98852.66
2022-11-03T00:24:42.624Z,98855.31
2022-11-03T00:25:43.947Z,98851.59
2022-11-03T00:26:45.300Z,98845.22
2022-11-03T00:27:53.829Z,98849.44
2022-11-03T00:28:56.457Z,98844.69
2022-11-03T00:29:57.770Z,98851.25
2022-11-03T00:30:59.465Z,98847.56
2022-11-03T00:32:00.835Z,98843.31
2022-11-03T00:33:02.230Z,98837.53
2022-11-03T00:34:04.679Z,98843.06
2022-11-03T00:35:06.347Z,98839.59
2022-11-03T00:36:08.180Z,98838.00
2022-11-03T00:37:09.508Z,98839.34
2022-11-03T00:38:10.845Z,98833.50
2022-11-03T00:39:12.313Z,98838.75
2022-11-03T00:40:13.628Z,98830.81
2022-11-03T00:41:15.488Z,98829.75
2022-11-03T00:42:16.819Z,98824.72
2022-11-03T00:43:18.121Z,98826.56
2022-11-03T00:44:19.438Z,98824.72
2022-11-03T00:45:20.783Z,98824.22
2022-11-03T00:46:23.057Z,98811.78
2022-11-03T00:47:24.523Z,98818.44
2022-11-03T00:48:25.839Z,98821.34
2022-11-03T00:49:27.147Z,98821.94
2022-11-03T00:50:28.491Z,98817.97
2022-11-03T00:51:29.844Z,98816.41
2022-11-03T00:52:31.174Z,98818.53
2022-11-03T00:53:33.581Z,98819.09
2022-11-03T00:54:34.911Z,98817.00
2022-11-03T00:55:36.230Z,98814.16
2022-11-03T00:56:38.564Z,98815.44
2022-11-03T00:57:39.920Z,98807.50
2022-11-03T00:58:42.136Z,98809.06
2022-11-03T00:59:43.460Z,98813.06
2022-11-03T01:00:44.863Z,98808.63
2022-11-03T01:01:47.724Z,98814.19
2022-11-03T01:02:49.487Z,98807.88
2022-11-03T01:03:52.104Z,98812.88
2022-11-03T01:04:53.432Z,98805.75
2022-11-03T01:05:54.826Z,98807.09
2022-11-03T01:06:57.760Z,98804.22
2022-11-03T01:09:01.376Z,98806.91
2022-11-03T01:10:02.719Z,98807.16
2022-11-03T01:11:07.248Z,98805.88
2022-11-03T01:12:10.161Z,98800.59
2022-11-03T01:13:13.113Z,98806.66
2022-11-03T01:14:15.340Z,98802.97
2022-11-03T01:15:16.734Z,98800.59
2022-11-03T01:16:18.061Z,98801.16
2022-11-03T01:17:20.727Z,98802.75
2022-11-03T01:18:22.048Z,98800.31
2022-11-03T01:19:23.715Z,98791.63
2022-11-03T01:20:25.077Z,98795.03
2022-11-03T01:21:26.796Z,98791.63
2022-11-03T01:22:28.136Z,98797.19
2022-11-03T01:23:29.428Z,98790.34
2022-11-03T01:24:30.763Z,98783.97
2022-11-03T01:25:32.113Z,98793.22
2022-11-03T01:26:33.488Z,98788.69
2022-11-03T01:27:34.890Z,98789.75
2022-11-03T01:28:40.096Z,98779.72
2022-11-03T01:29:41.601Z,98779.97
2022-11-03T01:30:42.925Z,98778.97
2022-11-03T01:31:44.241Z,98785.53
2022-11-03T01:32:45.567Z,98777.88
2022-11-03T01:33:47.127Z,98770.72
2022-11-03T01:34:48.523Z,98772.28
2022-11-03T01:35:52.924Z,98768.38
2022-11-03T01:36:54.265Z,98764.13
2022-11-03T01:37:56.001Z,98762.28
2022-11-03T01:38:59.198Z,98761.50
2022-11-03T01:40:00.527Z,98753.84
2022-11-03T01:41:03.184Z,98757.84
2022-11-03T01:42:04.659Z,98754.94
2022-11-03T01:43:15.853Z,98757.56
2022-11-03T01:44:17.175Z,98754.94
2022-11-03T01:45:18.491Z,98747.28
2022-11-03T01:46:24.953Z,98745.97
2022-11-03T01:47:28.112Z,98752.84
2022-11-03T01:48:30.338Z,98754.41
2022-11-03T01:49:35.140Z,98744.91
2022-11-03T01:50:36.489Z,98746.47
2022-11-03T01:51:38.275Z,98749.94
2022-11-03T01:52:44.672Z,98748.34
2022-11-03T01:53:47.805Z,98748.34
2022-11-03T01:54:51.749Z,98746.78
2022-11-03T01:55:54.652Z,98746.53
2022-11-03T01:56:57.259Z,98747.88
2022-11-03T01:58:03.868Z,98743.94
2022-11-03T01:59:05.225Z,98753.72
2022-11-03T02:00:06.855Z,98756.31
2022-11-03T02:01:14.128Z,98740.75
2022-11-03T02:02:15.726Z,98745.00
2022-11-03T02:03:17.760Z,98745.28
2022-11-03T02:04:22.537Z,98745.59
2022-11-03T02:05:25.489Z,98750.34
2022-11-03T02:06:28.356Z,98751.66
2022-11-03T02:07:29.641Z,98744.28
2022-11-03T02:08:35.580Z,98748.53
2022-11-03T02:09:36.931Z,98740.31
2022-11-03T02:10:38.558Z,98745.88
2022-11-03T02:11:39.887Z,98747.50
2022-11-03T02:12:42.444Z,98749.63
2022-11-03T02:13:43.779Z,98743.06
2022-11-03T02:15:03.070Z,98740.19
2022-11-03T02:16:04.545Z,98740.97
2022-11-03T02:17:11.143Z,98742.84
2022-11-03T02:18:12.935Z,98749.16
2022-11-03T02:19:40.488Z,98751.00
2022-11-03T02:20:42.458Z,98743.91
2022-11-03T02:21:59.108Z,98741.06
2022-11-03T02:23:00.423Z,98735.50
2022-11-03T02:24:13.691Z,98729.72
2022-11-03T02:25:17.849Z,98735.25
2022-11-03T02:26:19.245Z,98727.34
2022-11-03T02:27:20.576Z,98724.72
2022-11-03T02:28:23.517Z,98723.88
2022-11-03T02:29:24.876Z,98719.66
2022-11-03T02:30:29.088Z,98721.00
2022-11-03T02:31:35.489Z,98714.44
2022-11-03T02:32:41.976Z,98718.94
2022-11-03T02:33:52.311Z,98713.38
2022-11-03T02:34:59.609Z,98720.78
2022-11-03T02:36:05.492Z,98716.81
2022-11-03T02:37:16.376Z,98710.25
2022-11-03T02:38:19.289Z,98713.09
2022-11-03T02:39:23.105Z,98717.09
2022-11-03T02:40:36.156Z,98714.44
2022-11-03T02:41:38.855Z,98714.44
2022-11-03T02:42:42.749Z,98709.16
2022-11-03T02:43:45.551Z,98707.06
2022-11-03T02:44:47.635Z,98712.09
2022-11-03T02:45:50.979Z,98716.31
2022-11-03T02:46:56.156Z,98706.81
2022-11-03T02:47:59.596Z,98705.78
2022-11-03T02:49:00.949Z,98699.50
2022-11-03T02:50:05.504Z,98702.13
2022-11-03T02:51:07.069Z,98709.75
2022-11-03T02:52:28.348Z,98702.13
2022-11-03T02:53:30.602Z,98705.00
2022-11-03T02:54:35.618Z,98698.13
2022-11-03T02:55:38.159Z,98693.44
2022-11-03T02:57:05.519Z,98690.25
2022-11-03T02:58:18.900Z,98697.69
2022-11-03T02:59:23.720Z,98688.97
2022-11-03T03:00:25.072Z,98691.63
2022-11-03T03:01:32.915Z,98690.84
2022-11-03T03:02:38.864Z,98679.50
2022-11-03T03:03:52.223Z,98676.84
2022-11-03T03:04:55.396Z,98677.34
2022-11-03T03:05:59.279Z,98673.66
2022-11-03T03:07:02.734Z,98669.44
2022-11-03T03:08:05.747Z,98667.09
2022-11-03T03:09:10.246Z,98671.59
2022-11-03T03:10:14.109Z,98663.88
2022-11-03T03:11:15.451Z,98663.09
2022-11-03T03:12:19.508Z,98661.47
2022-11-03T03:13:22.446Z,98659.31
2022-11-03T03:14:44.022Z,98652.44
2022-11-03T03:15:47.517Z,98651.91
2022-11-03T03:17:04.195Z,98655.03
2022-11-03T03:18:11.585Z,98652.41
2022-11-03T03:19:18.136Z,98653.22
2022-11-03T03:20:19.462Z,98647.41
2022-11-03T03:21:25.934Z,98643.44
2022-11-03T03:22:30.040Z,98646.63
2022-11-03T03:23:34.809Z,98646.63
2022-11-03T03:24:45.225Z,98645.53
2022-11-03T03:25:53.409Z,98643.72
2022-11-03T03:26:56.466Z,98642.94
2022-11-03T03:28:02.838Z,98646.13
2022-11-03T03:29:13.503Z,98637.38
2022-11-03T03:30:15.144Z,98632.66
2022-11-03T03:31:18.749Z,98639.00
2022-11-03T03:32:22.035Z,98638.72
2022-11-03T03:33:24.772Z,98628.44
2022-11-03T03:34:35.696Z,98632.94
2022-11-03T03:35:40.133Z,98625.06
2022-11-03T03:36:43.370Z,98624.00
2022-11-03T03:37:47.168Z,98629.53
2022-11-03T03:38:52.517Z,98620.06
2022-11-03T03:39:56.364Z,98628.25
2022-11-03T03:40:59.427Z,98628.25
2022-11-03T03:42:01.901Z,98631.19
2022-11-03T03:43:04.813Z,98623.81
2022-11-03T03:44:07.688Z,98623.28
2022-11-03T03:45:10.223Z,98624.88
2022-11-03T03:46:12.466Z,98619.09
2022-11-03T03:47:17.575Z,98617.81
2022-11-03T03:48:19.020Z,98616.78
2022-11-03T03:49:20.355Z,98612.84
2022-11-03T03:50:22.414Z,98615.75
2022-11-03T03:51:24.656Z,98605.50
2022-11-03T03:52:26.720Z,98606.00
2022-11-03T03:53:29.003Z,98601.00
2022-11-03T03:54:30.401Z,98605.19
2022-11-03T03:55:36.513Z,98605.50
2022-11-03T03:57:00.580Z,98600.22
2022-11-03T03:58:04.044Z,98601.28
2022-11-03T03:59:05.671Z,98603.69
2022-11-03T04:00:07.620Z,98598.69
2022-11-03T04:01:13.787Z,98599.47
2022-11-03T04:02:15.815Z,98596.84
2022-11-03T04:03:18.737Z,98599.72
2022-11-03T04:04:20.288Z,98592.06
2022-11-03T04:05:21.636Z,98588.88
2022-11-03T04:06:22.963Z,98584.38
2022-11-03T04:07:24.256Z,98576.44
2022-11-03T04:08:25.564Z,98569.81
2022-11-03T04:09:26.881Z,98578.72
2022-11-03T04:10:28.218Z,98577.66
2022-11-03T04:11:29.536Z,98574.00
2022-11-03T04:12:30.860Z,98566.03
2022-11-03T04:13:32.600Z,98566.50
2022-11-03T04:14:33.961Z,98567.00
2022-11-03T04:15:35.555Z,98566.41
2022-11-03T04:16:36.862Z,98554.00
2022-11-03T04:17:41.203Z,98553.50
2022-11-03T04:18:42.566Z,98556.44
2022-11-03T04:19:43.888Z,98547.72
2022-11-03T04:20:45.216Z,98553.22
2022-11-03T04:21:46.584Z,98553.22
2022-11-03T04:22:47.923Z,98559.84
2022-11-03T04:23:50.999Z,98547.94
2022-11-03T04:24:52.296Z,98554.00
2022-11-03T04:25:54.756Z,98546.09
2022-11-03T04:26:58.800Z,98546.88
2022-11-03T04:28:00.182Z,98545.56
2022-11-03T04:29:01.550Z,98547.13
2022-11-03T04:30:08.779Z,98544.22
2022-11-03T04:31:10.584Z,98545.22
2022-11-03T04:32:16.353Z,98542.59
2022-11-03T04:33:21.010Z,98542.09
2022-11-03T04:34:22.353Z,98542.09
2022-11-03T04:35:24.479Z,98537.09
2022-11-03T04:36:26.090Z,98532.88
2022-11-03T04:37:28.111Z,98536.88
2022-11-03T04:38:29.956Z,98535.50
2022-11-03T04:39:31.437Z,98539.75
2022-11-03T04:40:32.784Z,98528.94
2022-11-03T04:41:34.081Z,98525.28
2022-11-03T04:42:35.559Z,98529.75
2022-11-03T04:43:38.118Z,98536.91
2022-11-03T04:44:39.445Z,98528.97
2022-11-03T04:45:43.175Z,98523.94
2022-11-03T04:46:45.179Z,98527.63
2022-11-03T04:47:46.505Z,98528.19
2022-11-03T04:48:47.849Z,98527.69
2022-11-03T04:49:49.195Z,98525.63
2022-11-03T04:50:53.598Z,98527.25
2022-11-03T04:51:54.921Z,98523.81
2022-11-03T04:52:57.894Z,98521.19
2022-11-03T04:54:02.685Z,98519.59
2022-11-03T04:55:08.895Z,98515.38
2022-11-03T04:56:14.689Z,98522.75
2022-11-03T04:57:16.952Z,98516.09
2022-11-03T04:58:22.000Z,98516.91
2022-11-03T04:59:23.373Z,98514.00
2022-11-03T05:00:24.695Z,98520.53
2022-11-03T05:01:27.251Z,98509.50
2022-11-03T05:02:29.177Z,98512.38
2022-11-03T05:03:32.204Z,98519.75
2022-11-03T05:04:33.570Z,98512.13
2022-11-03T05:05:34.892Z,98521.63
2022-11-03T05:06:36.226Z,98509.50
2022-11-03T05:07:37.595Z,98515.56
2022-11-03T05:08:39.126Z,98511.28
2022-11-03T05:09:42.967Z,98509.22
2022-11-03T05:10:44.505Z,98510.28
2022-11-03T05:11:46.321Z,98504.78
2022-11-03T05:12:48.037Z,98513.75
2022-11-03T05:13:50.032Z,98507.22
2022-11-03T05:14:55.565Z,98511.66
2022-11-03T05:16:04.036Z,98508.78
2022-11-03T05:17:25.068Z,98500.63
2022-11-03T05:18:29.482Z,98500.13
2022-11-03T05:19:33.181Z,98505.66
2022-11-03T05:20:36.571Z,98498.28
2022-11-03T05:21:38.061Z,98501.19
2022-11-03T05:22:39.505Z,98496.97
2022-11-03T05:23:43.392Z,98499.34
2022-11-03T05:24:44.953Z,98498.81
2022-11-03T05:25:50.987Z,98501.75
2022-11-03T05:26:53.044Z,98495.16
2022-11-03T05:27:54.437Z,98494.69
2022-11-03T05:28:57.947Z,98497.31
2022-11-03T05:30:00.966Z,98491.53
2022-11-03T05:31:13.746Z,98494.44
2022-11-03T05:32:19.506Z,98489.16
2022-11-03T05:33:22.854Z,98489.94
2022-11-03T05:34:30.114Z,98484.19
2022-11-03T05:35:31.621Z,98481.31
2022-11-03T05:36:33.361Z,98484.25
2022-11-03T05:37:35.310Z,98480.28
2022-11-03T05:38:36.689Z,98471.88
2022-11-03T05:39:40.023Z,98467.94
2022-11-03T05:40:41.473Z,98462.69
2022-11-03T05:41:42.817Z,98465.59
2022-11-03T05:42:45.560Z,98462.69
2022-11-03T05:43:51.815Z,98457.41
2022-11-03T05:44:53.184Z,98462.69
2022-11-03T05:45:57.616Z,98460.63
2022-11-03T05:47:01.999Z,98461.09
2022-11-03T05:48:13.044Z,98458.47
2022-11-03T05:49:14.981Z,98456.13
2022-11-03T05:50:19.639Z,98454.78
2022-11-03T05:51:34.060Z,98457.19
2022-11-03T05:52:35.477Z,98456.69
2022-11-03T05:53:38.993Z,98453.25
2022-11-03T05:54:40.345Z,98454.63
2022-11-03T05:55:42.495Z,98453.31
2022-11-03T05:56:43.949Z,98449.38
2022-11-03T05:57:45.458Z,98448.88
2022-11-03T05:58:48.645Z,98438.63
2022-11-03T05:59:51.299Z,98443.88
2022-11-03T06:00:52.947Z,98450.50
2022-11-03T06:01:55.711Z,98445.50
2022-11-03T06:02:57.875Z,98445.22
2022-11-03T06:04:19.538Z,98457.91
2022-11-03T06:05:22.480Z,98444.16
2022-11-03T06:06:32.384Z,98442.59
2022-11-03T06:07:34.265Z,98436.53
2022-11-03T06:08:37.843Z,98439.44
2022-11-03T06:09:41.576Z,98437.88
2022-11-03T06:10:47.299Z,98442.88
2022-11-03T06:11:50.094Z,98437.88
2022-11-03T06:12:54.160Z,98440.00
2022-11-03T06:13:57.367Z,98439.75
2022-11-03T06:14:58.780Z,98439.44
2022-11-03T06:16:12.211Z,98446.84
2022-11-03T06:17:24.009Z,98433.41
2022-11-03T06:18:26.380Z,98435.25
2022-11-03T06:19:36.909Z,98432.63
2022-11-03T06:20:39.362Z,98431.25
2022-11-03T06:21:44.497Z,98427.78
2022-11-03T06:22:46.185Z,98422.03
2022-11-03T06:23:47.619Z,98425.19
2022-11-03T06:24:49.236Z,98416.41
2022-11-03T06:25:55.183Z,98418.31
2022-11-03T06:26:56.559Z,98408.06
2022-11-03T06:28:03.033Z,98404.13
2022-11-03T06:29:04.418Z,98403.63
2022-11-03T06:30:14.872Z,98409.69
2022-11-03T06:31:23.360Z,98405.19
2022-11-03T06:32:25.151Z,98399.63
2022-11-03T06:33:33.736Z,98400.69
2022-11-03T06:34:55.746Z,98400.69
2022-11-03T06:36:02.120Z,98404.13
2022-11-03T06:37:13.419Z,98409.63
2022-11-03T06:38:17.879Z,98411.47
2022-11-03T06:39:23.119Z,98408.84
2022-11-03T06:40:33.560Z,98412.50
2022-11-03T06:41:36.279Z,98413.28
2022-11-03T06:42:38.111Z,98414.06
2022-11-03T06:43:43.335Z,98405.84
2022-11-03T06:44:46.496Z,98413.47
2022-11-03T06:45:52.331Z,98412.38
2022-11-03T06:46:56.608Z,98416.34
2022-11-03T06:48:14.473Z,98414.50
2022-11-03T06:49:29.539Z,98415.28
2022-11-03T06:50:32.037Z,98414.72
2022-11-03T06:51:35.589Z,98417.38
2022-11-03T06:52:42.929Z,98418.94
2022-11-03T06:53:44.335Z,98415.22
2022-11-03T06:54:48.255Z,98422.34
2022-11-03T06:55:49.969Z,98422.56
2022-11-03T06:56:51.434Z,98420.72
2022-11-03T06:58:00.226Z,98420.44
2022-11-03T06:59:01.655Z,98422.03
2022-11-03T07:00:32.825Z,98416.41
2022-11-03T07:01:36.122Z,98413.22
2022-11-03T07:02:37.603Z,98420.53
2022-11-03T07:03:39.002Z,98413.34
2022-11-03T07:04:40.391Z,98413.34
2022-11-03T07:05:41.842Z,98405.44
2022-11-03T07:06:43.392Z,98412.50
2022-11-03T07:07:44.780Z,98405.97
2022-11-03T07:08:47.857Z,98406.16
2022-11-03T07:09:49.486Z,98400.31
2022-11-03T07:10:57.173Z,98394.75
2022-11-03T07:11:59.812Z,98399.25
2022-11-03T07:13:07.069Z,98394.50
2022-11-03T07:14:16.319Z,98392.88
2022-11-03T07:15:24.266Z,98391.78
2022-11-03T07:16:28.494Z,98389.63
2022-11-03T07:17:29.940Z,98395.69
2022-11-03T07:18:31.392Z,98390.97
2022-11-03T07:19:38.335Z,98391.16
2022-11-03T07:20:39.994Z,98390.13
2022-11-03T07:21:44.231Z,98378.78
2022-11-03T07:22:46.387Z,98379.75
2022-11-03T07:23:47.903Z,98374.16
2022-11-03T07:24:54.514Z,98374.63
2022-11-03T07:26:01.972Z,98376.72
2022-11-03T07:27:12.621Z,98370.34
2022-11-03T07:28:15.053Z,98371.34
2022-11-03T07:29:20.095Z,98364.69
2022-11-03T07:30:27.823Z,98367.25
2022-11-03T07:31:29.440Z,98369.56
2022-11-03T07:32:33.162Z,98367.09
2022-11-03T07:33:34.656Z,98365.47
2022-11-03T07:34:36.147Z,98365.38
2022-11-03T07:36:13.047Z,98363.25
2022-11-03T07:37:02.577Z,98363.19
2022-11-03T07:38:09.547Z,98362.88
2022-11-03T07:39:13.634Z,98360.16
2022-11-03T07:40:25.335Z,98359.59
2022-11-03T07:41:31.288Z,98360.56
2022-11-03T07:42:35.873Z,98356.56
2022-11-03T07:43:37.317Z,98360.19
2022-11-03T07:44:39.574Z,98361.97
2022-11-03T07:45:42.874Z,98356.97
2022-11-03T07:46:44.279Z,98353.25
2022-11-03T07:47:45.756Z,98353.94
2022-11-03T07:48:48.268Z,98352.88
2022-11-03T07:49:49.672Z,98345.44
2022-11-03T07:50:59.176Z,98350.44
2022-11-03T07:52:00.630Z,98355.31
2022-11-03T07:53:02.137Z,98351.91
2022-11-03T07:54:12.692Z,98349.00
2022-11-03T07:55:14.592Z,98352.13
2022-11-03T07:56:20.596Z,98351.25
2022-11-03T07:57:24.647Z,98345.56
2022-11-03T07:58:34.527Z,98337.53
2022-11-03T07:59:41.341Z,98346.75
2022-11-03T08:00:45.304Z,98338.50
2022-11-03T08:01:51.010Z,98341.84
2022-11-03T08:02:58.827Z,98340.47
2022-11-03T08:04:20.527Z,98339.09
2022-11-03T08:05:21.881Z,98337.44
2022-11-03T08:06:23.258Z,98344.78
2022-11-03T08:07:24.653Z,98340.75
2022-11-03T08:08:26.055Z,98333.31
2022-11-03T08:09:27.451Z,98338.50
2022-11-03T08:10:28.816Z,98331.06
2022-11-03T08:11:30.529Z,98337.31
2022-11-03T08:12:31.872Z,98333.31
2022-11-03T08:13:33.227Z,98332.72
2022-11-03T08:14:34.567Z,98330.56
2022-11-03T08:15:36.240Z,98324.19
2022-11-03T08:16:37.951Z,98324.84
2022-11-03T08:17:39.349Z,98317.41
2022-11-03T08:18:40.744Z,98318.38
2022-11-03T08:19:42.557Z,98324.94
2022-11-03T08:20:43.940Z,98317.16
2022-11-03T08:21:45.547Z,98308.97
2022-11-03T08:23:05.017Z,98308.53
2022-11-03T08:24:08.298Z,98303.75
2022-11-03T08:25:10.268Z,98296.28
2022-11-03T08:26:11.698Z,98293.69
2022-11-03T08:27:13.126Z,98297.00
2022-11-03T08:28:14.792Z,98292.03
2022-11-03T08:29:16.459Z,98287.66
2022-11-03T08:30:18.063Z,98284.75
2022-11-03T08:31:19.508Z,98279.72
2022-11-03T08:32:20.959Z,98283.06
2022-11-03T08:33:22.469Z,98287.72
2022-11-03T08:34:23.909Z,98291.47
2022-11-03T08:35:28.811Z,98291.94
2022-11-03T08:36:32.905Z,98283.72
2022-11-03T08:37:34.398Z,98281.22
2022-11-03T08:38:36.009Z,98290.75
2022-11-03T08:39:37.404Z,98286.41
2022-11-03T08:40:39.237Z,98277.25
2022-11-03T08:41:40.681Z,98275.88
2022-11-03T08:42:42.044Z,98273.13
2022-11-03T08:43:43.379Z,98274.38
2022-11-03T08:44:44.752Z,98264.25
2022-11-03T08:45:46.085Z,98264.75
2022-11-03T08:46:47.435Z,98261.47
2022-11-03T08:47:48.902Z,98266.19
2022-11-03T08:48:50.279Z,98262.63
2022-11-03T08:49:51.612Z,98271.22
2022-11-03T08:50:53.271Z,98254.72
2022-11-03T08:51:54.614Z,98264.22
2022-11-03T08:52:55.954Z,98258.59
2022-11-03T08:53:57.273Z,98261.44
2022-11-03T08:54:58.734Z,98255.50
2022-11-03T08:56:00.093Z,98247.56
2022-11-03T08:57:01.421Z,98251.78
2022-11-03T08:58:02.832Z,98251.66
2022-11-03T08:59:04.238Z,98248.88
2022-11-03T09:00:06.012Z,98253.53
2022-11-03T09:01:07.352Z,98249.97
2022-11-03T09:02:08.769Z,98249.53
2022-11-03T09:03:10.522Z,98250.50
2022-11-03T09:04:12.040Z,98253.91
2022-11-03T09:05:13.807Z,98251.25
2022-11-03T09:06:15.151Z,98250.19
2022-11-03T09:07:16.564Z,98252.84
2022-11-03T09:11:00.917Z,98246.59
2022-11-03T09:12:02.293Z,98252.19
2022-11-03T09:13:03.820Z,98241.75
2022-11-03T09:14:05.362Z,98253.44
2022-11-03T09:15:07.024Z,98241.75
2022-11-03T09:16:11.078Z,98240.38
2022-11-03T09:17:12.567Z,98250.19
2022-11-03T09:18:14.027Z,98233.78
2022-11-03T09:19:15.541Z,98236.63
2022-11-03T09:20:18.063Z,98235.84
2022-11-03T09:21:19.725Z,98231.31
2022-11-03T09:22:21.425Z,98236.31
2022-11-03T09:23:22.902Z,98231.16
2022-11-03T09:24:24.332Z,98234.28
2022-11-03T09:25:25.655Z,98232.88
2022-11-03T09:26:27.402Z,98226.66
2022-11-03T09:27:30.349Z,98225.25
2022-11-03T09:28:31.751Z,98226.81
2022-11-03T09:30:06.498Z,98229.16
2022-11-03T09:30:58.351Z,98230.09
2022-11-03T09:31:59.696Z,98228.22
2022-11-03T09:33:01.420Z,98228.41
2022-11-03T09:34:03.195Z,98220.13
2022-11-03T09:35:05.518Z,98219.19
2022-11-03T09:36:07.115Z,98225.28
2022-11-03T09:37:08.838Z,98225.56
2022-11-03T09:38:11.608Z,98211.69
2022-11-03T09:39:13.037Z,98210.59
2022-11-03T09:40:15.939Z,98206.06
2022-11-03T09:41:26.568Z,98214.97
2022-11-03T09:42:38.240Z,98210.59
2022-11-03T09:43:39.604Z,98203.56
2022-11-03T09:44:41.421Z,98199.50
2022-11-03T09:45:42.789Z,98205.72
2022-11-03T09:46:44.303Z,98199.47
2022-11-03T09:47:45.961Z,98212.31
2022-11-03T09:48:47.421Z,98211.66
2022-11-03T09:49:48.933Z,98207.13
2022-11-03T09:50:52.752Z,98217.28
2022-11-03T09:51:54.943Z,98200.41
2022-11-03T09:52:56.431Z,98210.38
2022-11-03T09:53:59.380Z,98199.13
2022-11-03T09:55:00.886Z,98199.56
2022-11-03T09:56:02.766Z,98190.34
2022-11-03T09:57:12.706Z,98196.75
2022-11-03T09:58:15.410Z,98192.06
2022-11-03T09:59:18.267Z,98192.53
2022-11-03T10:00:20.997Z,98184.06
2022-11-03T10:01:23.429Z,98181.13
2022-11-03T10:02:27.648Z,98184.56
2022-11-03T10:03:30.047Z,98188.78
2022-11-03T10:04:31.438Z,98175.94
2022-11-03T10:05:33.442Z,98180.16
2022-11-03T10:06:35.077Z,98186.88
2022-11-03T10:07:36.546Z,98180.13
2022-11-03T10:08:38.961Z,98175.72
2022-11-03T10:09:44.082Z,98175.22
2022-11-03T10:10:45.420Z,98166.94
2022-11-03T10:11:47.275Z,98170.53
2022-11-03T10:12:49.639Z,98173.28
2022-11-03T10:13:52.997Z,98167.97
2022-11-03T10:14:54.623Z,98166.09
2022-11-03T10:15:56.912Z,98169.69
2022-11-03T10:16:59.169Z,98169.69
2022-11-03T10:18:00.883Z,98164.50
2022-11-03T10:19:02.220Z,98157.13
2022-11-03T10:20:06.041Z,98165.22
2022-11-03T10:21:14.327Z,98164.91
2022-11-03T10:22:16.019Z,98156.47
2022-11-03T10:23:17.364Z,98157.84
2022-11-03T10:24:18.780Z,98161.91
2022-11-03T10:25:27.274Z,98158.63
2022-11-03T10:26:28.644Z,98158.75
2022-11-03T10:27:30.014Z,98167.66
2022-11-03T10:28:31.349Z,98160.13
2022-11-03T10:29:34.625Z,98157.28
2022-11-03T10:31:10.773Z,98154.75
2022-11-03T10:32:28.607Z,98143.28
2022-11-03T10:33:29.927Z,98142.81
2022-11-03T10:34:35.365Z,98143.72
2022-11-03T10:35:36.691Z,98144.94
2022-11-03T10:36:38.024Z,98141.63
2022-11-03T10:37:39.581Z,98129.38
2022-11-03T10:38:41.189Z,98133.13
2022-11-03T10:39:43.127Z,98137.81
2022-11-03T10:40:48.460Z,98133.38
2022-11-03T10:41:57.539Z,98126.63
2022-11-03T10:42:59.070Z,98128.63
2022-11-03T10:44:05.429Z,98121.13
2022-11-03T10:45:17.000Z,98120.44
2022-11-03T10:47:40.766Z,98111.75
2022-11-03T10:48:42.498Z,98118.28
2022-11-03T10:49:45.326Z,98107.41
2022-11-03T10:50:46.656Z,98112.09
2022-11-03T10:51:49.843Z,98109.09
2022-11-03T10:52:51.211Z,98104.66
2022-11-03T10:53:52.511Z,98099.00
2022-11-03T10:54:55.589Z,98096.03
2022-11-03T10:55:57.084Z,98093.97
2022-11-03T10:56:58.456Z,98100.16
2022-11-03T10:57:59.810Z,98098.59
2022-11-03T10:59:01.663Z,98094.84
2022-11-03T11:00:03.721Z,98093.84
2022-11-03T11:01:05.902Z,98093.53
2022-11-03T11:02:13.586Z,98093.53
2022-11-03T11:03:18.119Z,98089.09
2022-11-03T11:04:22.136Z,98082.78
2022-11-03T11:05:24.290Z,98086.00
2022-11-03T11:06:26.985Z,98082.09
2022-11-03T11:07:31.167Z,98087.31
2022-11-03T11:08:32.585Z,98082.66
2022-11-03T11:09:33.972Z,98083.78
2022-11-03T11:10:35.374Z,98087.84
2022-11-03T11:11:36.921Z,98080.31
2022-11-03T11:12:38.391Z,98067.19
2022-11-03T11:13:39.827Z,98060.78
2022-11-03T11:14:53.445Z,98062.34
2022-11-03T11:15:59.203Z,98057.22
2022-11-03T11:17:01.766Z,98052.25
2022-11-03T11:18:03.189Z,98050.81
2022-11-03T11:19:04.630Z,98047.03
2022-11-03T11:20:15.332Z,98035.13
2022-11-03T11:21:16.835Z,98035.91
2022-11-03T11:22:22.360Z,98039.47
2022-11-03T11:23:26.719Z,98036.91
2022-11-03T11:24:43.358Z,98037.81
2022-11-03T11:26:03.488Z,98030.13
2022-11-03T11:27:24.808Z,98030.81
2022-11-03T11:28:26.149Z,98029.81
2022-11-03T11:29:30.246Z,98029.34
2022-11-03T11:30:31.605Z,98032.47
2022-11-03T11:31:33.203Z,98028.34
2022-11-03T11:32:37.334Z,98029.81
2022-11-03T11:33:38.717Z,98021.81
2022-11-03T11:34:40.102Z,98028.81
2022-11-03T11:35:41.420Z,98025.38
2022-11-03T11:36:43.949Z,98024.16
2022-11-03T11:37:45.323Z,98022.38
2022-11-03T11:38:49.699Z,98019.72
2022-11-03T11:39:51.055Z,98021.25
2022-11-03T11:40:52.565Z,98020.13
2022-11-03T11:42:05.893Z,98026.25
2022-11-03T11:43:10.541Z,98015.25
2022-11-03T11:44:30.744Z,98021.69
2022-11-03T11:45:50.666Z,98020.72
2022-11-03T11:46:52.295Z,98016.69
2022-11-03T11:47:53.719Z,98015.25
2022-11-03T11:49:03.901Z,98013.81
2022-11-03T11:50:05.243Z,98005.38
2022-11-03T11:51:08.667Z,98010.72
2022-11-03T11:52:15.209Z,98001.16
2022-11-03T11:53:21.463Z,97999.94
2022-11-03T11:54:22.844Z,97994.19
2022-11-03T11:55:26.990Z,97993.16
2022-11-03T11:56:28.569Z,97991.16
2022-11-03T11:57:33.591Z,97982.41
2022-11-03T11:58:38.709Z,97986.94
2022-11-03T11:59:40.158Z,97982.94
2022-11-03T12:00:50.424Z,97985.25
2022-11-03T12:01:53.194Z,97976.72
2022-11-03T12:02:54.866Z,97976.84
2022-11-03T12:04:16.563Z,97971.16
2022-11-03T12:05:22.815Z,97972.81
2022-11-03T12:06:33.129Z,97966.47
2022-11-03T12:07:35.264Z,97966.25
2022-11-03T12:08:36.872Z,97964.28
2022-11-03T12:09:38.259Z,97970.25
2022-11-03T12:10:51.621Z,97963.81
2022-11-03T12:12:00.585Z,97958.69
2022-11-03T12:13:24.699Z,97966.25
2022-11-03T12:14:29.082Z,97957.13
2022-11-03T12:15:49.579Z,97953.44
2022-11-03T12:16:51.238Z,97949.59
2022-11-03T12:17:52.582Z,97951.47
2022-11-03T12:18:53.910Z,97946.56
2022-11-03T12:19:55.227Z,97948.47
2022-11-03T12:20:56.745Z,97946.56
2022-11-03T12:21:58.176Z,97946.47
2022-11-03T12:22:59.475Z,97948.81
2022-11-03T12:24:00.876Z,97952.34
2022-11-03T12:25:03.376Z,97952.00
2022-11-03T12:26:05.101Z,97946.22
2022-11-03T12:27:35.693Z,97945.13
2022-11-03T12:28:37.161Z,97943.13
2022-11-03T12:29:38.526Z,97937.38
2022-11-03T12:30:40.376Z,97936.25
2022-11-03T12:31:41.848Z,97934.25
2022-11-03T12:32:43.265Z,97925.34
2022-11-03T12:33:44.647Z,97935.03
2022-11-03T12:34:46.231Z,97928.50
2022-11-03T12:35:47.583Z,97926.50
2022-11-03T12:36:53.279Z,97925.53